Impacts TAF Board INFO
FOR SITUATIONAL AWARENESS. NOT TO BE USED FOR FLIGHT PLANNING PURPOSES.
IDs:

KMCO - Orlando Intl, FL, US

Issued at 0536 UTC 23 Feb 2018
Updated at 0641 UTC 23 Feb 2018
Potential Impact None Slight Moderate High
Time0553Z 23/07Z 23/08Z 23/09Z 23/10Z 23/11Z 23/12Z 23/13Z 23/14Z 23/15Z 23/16Z 23/17Z 23/18Z 23/19Z>>
Type OBS PRVL PRVL PRVL PRVL PRVL PRVL PRVL PRVL PRVL PRVL PRVL PRVL PRVL
VIS 10 >6 >6 >6 >6 >6 >6 >6 >6 >6 >6 >6 >6 >6
CIG -- -- -- -- -- -- -- -- -- -- -- -- -- --
Cover CLR FEW FEW FEW FEW FEW FEW FEW FEW SCT SCT SCT SCT SCT
FltCat VFR VFR VFR VFR VFR VFR VFR VFR VFR VFR VFR VFR VFR VFR
WX -- -- -- -- -- -- -- -- -- -- -- -- -- --
WDir 80 50 50 50 50 50 50 50 50 110 110 110 110 110
WSpd 5 5 5 5 5 5 5 5 5 10 10 10 10 10
WGst -- -- -- -- -- -- -- -- -- -- -- -- -- --

Raw TAF
KMCO 230536Z 2306/2412 05005KT P6SM FEW025
  FM231500 11010KT P6SM FEW030 SCT050
  FM240000 10006KT P6SM FEW040


Raw METAR
KMCO 230553Z 08005KT 10SM CLR 20/19 A3037 RMK AO2 SLP283 T02000189 10233 20194 58004
KMCO 230453Z 08005KT 10SM CLR 20/19 A3038 RMK AO2 SLP286 T02000189 402940189
KMCO 230353Z 09005KT 10SM CLR 21/19 A3039 RMK AO2 SLP287 T02060189

METAR Board
Radar Display
Forecast Discussion

FOR SITUATIONAL AWARENESS. NOT TO BE USED FOR FLIGHT PLANNING PURPOSES.